Shamrock Station, Pennsylvania
Current Conditions -  °F | °C
As of 8:35 AM on Thursday 23 Oct 2014 (Local Time) from KXLL Reporting Station
Overcast Overcast  
Wind Chill: 50°   Ceiling: 2200
Heat Index: 50°   Visibility: 10mi
Dew Point: 43°   Wind: 10mph
Humidity: 76%   Direction: 350°N
Pressure: 29.82"   Gusts: 18mph
Location:  40.4939°N, 75.6842°W
Report Text: KXLL 231235Z AUTO 35009G16KT 10SM BKN022 OVC036 10/06 A2982 RMK AO2 LTG DSNT SW
Loading
Personal Weather Stations






























Interactive Weather Map
Tropical Storm Tracking
New forecast layout! Learn more

10-Day Weather Forecast

Advertisements
Track Severe Weather on mobile